createdAt,value
2023-05-19T00:01:00.262Z,102006.72
2023-05-19T00:03:27.054Z,102011.88
2023-05-19T00:05:54.372Z,102005.63
2023-05-19T00:08:23.431Z,102001.47
2023-05-19T00:10:50.409Z,102005.06
2023-05-19T00:13:17.162Z,102004.94
2023-05-19T00:15:43.825Z,102002.06
2023-05-19T00:18:13.966Z,102002.38
2023-05-19T00:20:40.692Z,101995.72
2023-05-19T00:23:07.050Z,102003.47
2023-05-19T00:25:33.464Z,102002.69
2023-05-19T00:28:00.116Z,102000.19
2023-05-19T00:30:26.712Z,102001.47
2023-05-19T00:32:53.653Z,101996.47
2023-05-19T00:35:20.233Z,101999.19
2023-05-19T00:37:46.734Z,101997.47
2023-05-19T00:40:13.562Z,101999.28
2023-05-19T00:42:41.354Z,102003.13
2023-05-19T00:45:08.605Z,102003.13
2023-05-19T00:47:35.179Z,101998.28
2023-05-19T00:50:01.773Z,102007.53
2023-05-19T00:52:28.327Z,102013.44
2023-05-19T00:54:55.605Z,102012.94
2023-05-19T00:57:22.312Z,102006.44
2023-05-19T00:59:49.010Z,102004.44
2023-05-19T01:02:15.470Z,102012.84
2023-05-19T01:04:43.868Z,102005.34
2023-05-19T01:07:12.428Z,102003.72
2023-05-19T01:09:39.434Z,102008.75
2023-05-19T01:12:06.421Z,102009.69
2023-05-19T01:14:32.919Z,102007.63
2023-05-19T01:17:21.261Z,102009.06
2023-05-19T01:20:02.055Z,102007.22
2023-05-19T01:22:48.252Z,102000.38
2023-05-19T01:25:49.901Z,101996.03
2023-05-19T01:28:31.474Z,101997.09
2023-05-19T01:31:01.475Z,101991.41
2023-05-19T01:33:30.916Z,101994.84
2023-05-19T01:35:59.039Z,101995.28
2023-05-19T01:38:28.162Z,101992.78
2023-05-19T01:40:56.551Z,101993.03
2023-05-19T01:43:25.930Z,101998.47
2023-05-19T01:45:53.623Z,101993.66
2023-05-19T01:48:20.814Z,101990.72
2023-05-19T01:50:47.529Z,101992.00
2023-05-19T01:53:14.095Z,101992.63
2023-05-19T01:55:44.676Z,101999.13
2023-05-19T01:58:45.444Z,101991.78
2023-05-19T02:01:20.961Z,101991.81
2023-05-19T02:04:26.405Z,101995.16
2023-05-19T02:07:03.971Z,102002.69
2023-05-19T02:09:49.072Z,101998.53
2023-05-19T02:12:20.255Z,102003.75
2023-05-19T02:15:05.197Z,102007.72
2023-05-19T02:17:36.056Z,101998.56
2023-05-19T02:20:04.948Z,102005.88
2023-05-19T02:22:31.857Z,102001.69
2023-05-19T02:24:58.420Z,102005.44
2023-05-19T02:27:24.886Z,102001.28
2023-05-19T02:29:51.473Z,102014.00
2023-05-19T02:32:18.788Z,102008.38
2023-05-19T02:34:45.520Z,102007.13
2023-05-19T02:37:16.253Z,101999.63
2023-05-19T02:39:43.019Z,102001.72
2023-05-19T02:42:09.899Z,101995.44
2023-05-19T02:44:36.460Z,101992.50
2023-05-19T02:47:02.890Z,101989.38
2023-05-19T02:49:35.924Z,101989.59
2023-05-19T02:52:03.326Z,101983.31
2023-05-19T02:54:34.340Z,101989.16
2023-05-19T02:57:02.635Z,101987.31
2023-05-19T02:59:29.172Z,101996.66
2023-05-19T03:01:59.776Z,101977.91
2023-05-19T03:04:26.287Z,101986.25
2023-05-19T03:06:54.055Z,101982.72
2023-05-19T03:09:20.727Z,101973.75
2023-05-19T03:11:47.164Z,101971.63
2023-05-19T03:14:14.228Z,101978.50
2023-05-19T03:16:42.264Z,101978.50
2023-05-19T03:19:09.843Z,101977.47
2023-05-19T03:21:36.688Z,101978.28
2023-05-19T03:24:03.389Z,101972.03
2023-05-19T03:26:29.885Z,101977.00
2023-05-19T03:28:56.436Z,101973.66
2023-05-19T03:31:22.928Z,101983.88
2023-05-19T03:33:49.466Z,101989.91
2023-05-19T03:36:15.852Z,101989.50
2023-05-19T03:38:42.253Z,101994.91
2023-05-19T03:41:08.749Z,101985.50
2023-05-19T03:43:35.163Z,101988.41
2023-05-19T03:46:02.140Z,101986.97
2023-05-19T03:48:28.668Z,101989.84
2023-05-19T03:50:55.556Z,101992.72
2023-05-19T03:53:22.013Z,101989.78
2023-05-19T03:55:49.741Z,101986.28
2023-05-19T03:58:16.454Z,101979.84
2023-05-19T04:00:42.824Z,101977.56
2023-05-19T04:03:09.494Z,101986.69
2023-05-19T04:05:36.031Z,101979.84
2023-05-19T04:08:02.373Z,101973.59
2023-05-19T04:10:29.169Z,101977.75
2023-05-19T04:12:55.571Z,101982.94
2023-05-19T04:15:22.109Z,101991.06
2023-05-19T04:17:48.614Z,101986.06
2023-05-19T04:20:15.054Z,101983.13
2023-05-19T04:22:41.582Z,101986.41
2023-05-19T04:25:08.925Z,101986.41
2023-05-19T04:27:39.122Z,101986.06
2023-05-19T04:30:06.431Z,101988.75
2023-05-19T04:32:33.076Z,101985.63
2023-05-19T04:34:59.586Z,101990.03
2023-05-19T04:37:26.464Z,101984.63
2023-05-19T04:39:53.096Z,101991.94
2023-05-19T04:42:19.657Z,101987.78
2023-05-19T04:44:49.090Z,101989.03
2023-05-19T04:47:15.633Z,101992.19
2023-05-19T04:49:42.034Z,101988.66
2023-05-19T04:52:12.569Z,101986.00
2023-05-19T04:54:40.095Z,101987.47
2023-05-19T04:57:06.986Z,101984.97
2023-05-19T04:59:33.526Z,101993.28
2023-05-19T05:02:00.160Z,101996.00
2023-05-19T05:04:26.688Z,101992.06
2023-05-19T05:06:53.272Z,102000.84
2023-05-19T05:09:20.025Z,101993.75
2023-05-19T05:11:46.790Z,102001.47
2023-05-19T05:14:13.531Z,101995.03
2023-05-19T05:16:40.815Z,101997.09
2023-05-19T05:19:07.583Z,102000.00
2023-05-19T05:21:34.628Z,102001.28
2023-05-19T05:24:01.490Z,101999.56
2023-05-19T05:26:30.518Z,101993.25
2023-05-19T05:28:56.964Z,101994.72
2023-05-19T05:31:23.332Z,101995.28
2023-05-19T05:33:50.064Z,101992.97
2023-05-19T05:36:16.559Z,101995.00
2023-05-19T05:38:42.967Z,101998.69
2023-05-19T05:41:10.475Z,101998.81
2023-05-19T05:43:36.838Z,101996.25
2023-05-19T05:46:03.334Z,101994.69
2023-05-19T05:48:30.217Z,101998.41
2023-05-19T05:50:57.254Z,101997.31
2023-05-19T05:53:26.141Z,101996.63
2023-05-19T05:55:53.620Z,101988.97
2023-05-19T05:58:21.144Z,101991.16
2023-05-19T06:00:49.276Z,101994.44
2023-05-19T06:05:43.224Z,101988.91
2023-05-19T06:08:09.648Z,101983.78
2023-05-19T06:10:39.347Z,101980.31
2023-05-19T06:13:05.817Z,101979.84
2023-05-19T06:15:32.355Z,101990.13
2023-05-19T06:17:59.300Z,101987.72
2023-05-19T06:20:26.275Z,101988.81
2023-05-19T06:22:52.728Z,101980.56
2023-05-19T06:25:20.592Z,101979.78
2023-05-19T06:27:46.951Z,101983.25
2023-05-19T06:30:13.751Z,101970.97
2023-05-19T06:32:40.466Z,101972.19
2023-05-19T06:35:07.354Z,101976.59
2023-05-19T06:37:33.770Z,101962.25
2023-05-19T06:40:00.299Z,101971.44
2023-05-19T06:42:26.708Z,101962.94
2023-05-19T06:44:53.452Z,101961.28
2023-05-19T06:47:19.913Z,101965.09
2023-05-19T06:49:46.828Z,101963.44
2023-05-19T06:52:13.308Z,101964.50
2023-05-19T06:54:39.840Z,101964.72
2023-05-19T06:57:06.532Z,101963.44
2023-05-19T06:59:32.968Z,101967.94
2023-05-19T07:01:59.540Z,101969.69
2023-05-19T07:04:26.201Z,101971.47
2023-05-19T07:06:53.374Z,101964.94
2023-05-19T07:09:19.777Z,101970.38
2023-05-19T07:11:46.684Z,101966.53
2023-05-19T07:14:13.099Z,101973.28
2023-05-19T07:16:39.562Z,101965.59
2023-05-19T07:19:06.163Z,101964.69
2023-05-19T07:21:32.673Z,101956.88
2023-05-19T07:23:59.097Z,101958.09
2023-05-19T07:26:26.699Z,101961.28
2023-05-19T07:28:53.357Z,101961.78
2023-05-19T07:31:19.853Z,101963.06
2023-05-19T07:33:46.318Z,101959.41
2023-05-19T07:36:12.859Z,101957.97
2023-05-19T07:38:39.414Z,101955.53
2023-05-19T07:41:05.892Z,101962.16
2023-05-19T07:43:32.599Z,101960.59
2023-05-19T07:45:59.097Z,101952.06
2023-05-19T07:48:25.905Z,101956.03
2023-05-19T07:50:53.066Z,101949.31
2023-05-19T07:53:20.227Z,101953.16
2023-05-19T07:55:46.818Z,101954.59
2023-05-19T07:58:13.386Z,101941.28
2023-05-19T08:00:41.018Z,101937.88
2023-05-19T08:03:08.032Z,101932.69
2023-05-19T08:05:35.616Z,101939.97
2023-05-19T08:08:02.843Z,101931.91
2023-05-19T08:10:29.477Z,101919.97
2023-05-19T08:12:56.058Z,101927.25
2023-05-19T08:15:22.446Z,101921.25
2023-05-19T08:17:48.867Z,101925.78
2023-05-19T08:20:15.382Z,101925.25
2023-05-19T08:22:41.797Z,101920.34
2023-05-19T08:25:09.607Z,101918.16
2023-05-19T08:27:36.295Z,101917.88
2023-05-19T08:30:02.769Z,101914.91
2023-05-19T08:32:29.199Z,101914.16
2023-05-19T08:34:55.699Z,101911.81
2023-05-19T08:37:22.151Z,101908.00
2023-05-19T08:39:48.767Z,101904.13
2023-05-19T08:42:15.377Z,101905.78
2023-05-19T08:44:43.876Z,101899.16
2023-05-19T08:47:13.950Z,101890.13
2023-05-19T08:49:46.562Z,101893.22
2023-05-19T08:52:47.845Z,101892.75
2023-05-19T08:55:29.017Z,101890.22
2023-05-19T08:57:56.376Z,101893.75
2023-05-19T09:00:23.523Z,101882.00
2023-05-19T09:03:00.825Z,101884.50
2023-05-19T09:05:38.986Z,101880.31
2023-05-19T09:08:05.402Z,101876.69
2023-05-19T09:10:31.819Z,101876.38
2023-05-19T09:12:58.452Z,101874.53
2023-05-19T09:15:28.394Z,101873.50
2023-05-19T09:18:12.349Z,101870.78
2023-05-19T09:20:44.458Z,101863.59
2023-05-19T09:23:16.051Z,101861.13
2023-05-19T09:25:50.816Z,101857.53
2023-05-19T09:28:25.304Z,101860.47
2023-05-19T09:31:04.869Z,101855.50
2023-05-19T09:33:36.832Z,101856.81
2023-05-19T09:36:06.183Z,101847.63
2023-05-19T09:38:33.159Z,101857.75
2023-05-19T09:41:00.370Z,101852.69
2023-05-19T09:43:31.580Z,101852.28
2023-05-19T09:46:04.247Z,101838.84
2023-05-19T09:48:30.813Z,101839.97
2023-05-19T09:50:58.166Z,101841.03
2023-05-19T09:53:27.842Z,101838.81
2023-05-19T09:55:57.868Z,101839.00
2023-05-19T09:58:25.005Z,101846.75
2023-05-19T10:00:52.390Z,101832.22
2023-05-19T10:03:19.572Z,101837.75
2023-05-19T10:05:47.278Z,101829.50
2023-05-19T10:08:14.247Z,101836.09
2023-05-19T10:10:41.209Z,101828.94
2023-05-19T10:13:07.890Z,101831.69
2023-05-19T10:15:40.766Z,101827.56
2023-05-19T10:18:12.096Z,101826.47
2023-05-19T10:20:40.066Z,101831.69
2023-05-19T10:23:06.555Z,101825.63
2023-05-19T10:25:35.288Z,101829.41
2023-05-19T10:28:13.739Z,101820.22
2023-05-19T10:30:44.803Z,101819.34
2023-05-19T10:33:15.428Z,101809.22
2023-05-19T10:35:41.888Z,101814.78
2023-05-19T10:38:14.534Z,101812.25
2023-05-19T10:40:58.046Z,101803.91
2023-05-19T10:43:40.852Z,101815.19
2023-05-19T10:46:07.456Z,101801.78
2023-05-19T10:48:37.331Z,101801.00
2023-05-19T10:51:04.768Z,101796.75
2023-05-19T10:53:32.509Z,101796.56
2023-05-19T10:56:04.383Z,101802.88
2023-05-19T10:58:56.484Z,101793.66
2023-05-19T11:01:24.797Z,101788.72
2023-05-19T11:03:57.510Z,101797.47
2023-05-19T11:06:29.610Z,101797.09
2023-05-19T11:08:58.111Z,101790.91
2023-05-19T11:11:24.673Z,101802.28
2023-05-19T11:13:55.540Z,101795.00
2023-05-19T11:16:34.690Z,101791.69
2023-05-19T11:19:01.909Z,101783.91
2023-05-19T11:21:52.604Z,101777.91
2023-05-19T11:24:40.076Z,101769.13
2023-05-19T11:27:32.791Z,101783.72
2023-05-19T11:30:11.752Z,101772.41
2023-05-19T11:32:44.429Z,101773.75
2023-05-19T11:35:11.136Z,101766.56
2023-05-19T11:37:37.592Z,101764.66
2023-05-19T11:40:07.091Z,101764.13
2023-05-19T11:42:37.386Z,101764.66
2023-05-19T11:45:05.007Z,101765.13
2023-05-19T11:47:42.016Z,101769.31
2023-05-19T11:50:19.008Z,101755.09
2023-05-19T11:52:46.272Z,101754.00
2023-05-19T11:55:16.758Z,101759.28
2023-05-19T11:58:04.712Z,101760.66
2023-05-19T12:00:39.878Z,101751.22
2023-05-19T12:03:07.820Z,101747.59
2023-05-19T12:05:41.955Z,101742.84
2023-05-19T12:08:09.684Z,101747.59
2023-05-19T12:10:36.836Z,101741.81
2023-05-19T12:13:03.583Z,101733.19
2023-05-19T12:15:31.811Z,101728.66
2023-05-19T12:18:00.553Z,101723.91
2023-05-19T12:20:28.656Z,101724.47
2023-05-19T12:22:56.344Z,101729.16
2023-05-19T12:25:23.683Z,101731.31
2023-05-19T12:27:52.791Z,101719.22
2023-05-19T12:30:26.184Z,101710.84
2023-05-19T12:32:54.204Z,101710.84
2023-05-19T12:35:23.254Z,101714.31
2023-05-19T12:37:50.497Z,101696.28
2023-05-19T12:40:17.195Z,101702.97
2023-05-19T12:42:48.616Z,101706.56
2023-05-19T12:45:15.195Z,101701.78
2023-05-19T12:47:41.855Z,101709.06
2023-05-19T12:50:10.206Z,101701.78
2023-05-19T12:52:45.792Z,101703.66
2023-05-19T12:55:13.959Z,101698.38
2023-05-19T12:57:42.816Z,101706.13
2023-05-19T13:00:16.713Z,101699.31
2023-05-19T13:03:04.792Z,101697.28
2023-05-19T13:05:33.998Z,101691.13
2023-05-19T13:08:08.917Z,101693.63
2023-05-19T13:10:36.943Z,101693.34
2023-05-19T13:13:04.319Z,101687.94
2023-05-19T13:15:37.704Z,101685.94
2023-05-19T13:18:06.305Z,101690.19
2023-05-19T13:20:35.674Z,101683.75
2023-05-19T13:23:03.256Z,101671.53
2023-05-19T13:25:29.735Z,101677.72
2023-05-19T13:27:56.731Z,101667.28
2023-05-19T13:30:23.849Z,101679.13
2023-05-19T13:32:52.346Z,101670.56
2023-05-19T13:35:19.025Z,101668.84
2023-05-19T13:37:45.599Z,101674.56
2023-05-19T13:40:13.841Z,101665.91
2023-05-19T13:42:40.775Z,101673.38
2023-05-19T13:45:08.028Z,101668.78
2023-05-19T13:47:34.566Z,101665.25
2023-05-19T13:50:04.406Z,101653.16
2023-05-19T13:52:31.203Z,101654.91
2023-05-19T13:54:57.863Z,101652.00
2023-05-19T13:57:24.360Z,101657.28
2023-05-19T14:00:02.055Z,101646.63
2023-05-19T14:02:30.407Z,101655.44
2023-05-19T14:04:57.513Z,101646.44
2023-05-19T14:07:24.198Z,101640.53
2023-05-19T14:09:51.941Z,101642.09
2023-05-19T14:12:18.680Z,101646.13
2023-05-19T14:14:45.699Z,101643.47
2023-05-19T14:17:12.266Z,101634.03
2023-05-19T14:19:39.007Z,101642.66
2023-05-19T14:22:05.897Z,101634.38
2023-05-19T14:24:32.424Z,101630.53
2023-05-19T14:26:59.032Z,101632.56
2023-05-19T14:29:25.587Z,101641.03
2023-05-19T14:31:52.084Z,101634.47
2023-05-19T14:34:21.014Z,101628.72
2023-05-19T14:36:48.617Z,101634.78
2023-05-19T14:39:15.094Z,101631.22
2023-05-19T14:41:41.477Z,101640.63
2023-05-19T14:44:08.035Z,101632.78
2023-05-19T14:46:34.435Z,101632.03
2023-05-19T14:49:00.986Z,101628.25
2023-05-19T14:51:27.535Z,101626.75
2023-05-19T14:53:54.032Z,101628.88
2023-05-19T14:56:21.899Z,101625.63
2023-05-19T14:58:48.397Z,101627.53
2023-05-19T15:01:14.842Z,101624.53
2023-05-19T15:03:41.294Z,101613.97
2023-05-19T15:06:10.397Z,101605.69
2023-05-19T15:08:37.897Z,101608.44
2023-05-19T15:11:04.635Z,101610.34
2023-05-19T15:13:31.020Z,101608.56
2023-05-19T15:16:12.265Z,101623.66
2023-05-19T15:18:43.217Z,101612.31
2023-05-19T15:21:09.978Z,101603.59
2023-05-19T15:23:36.465Z,101609.72
2023-05-19T15:26:02.905Z,101592.22
2023-05-19T15:28:29.599Z,101596.25
2023-05-19T15:30:56.092Z,101601.44
2023-05-19T15:33:22.553Z,101607.78
2023-05-19T15:35:51.686Z,101591.91
2023-05-19T15:38:21.112Z,101596.19
2023-05-19T15:40:47.564Z,101588.50
2023-05-19T15:43:14.274Z,101584.16
2023-05-19T15:45:40.945Z,101584.00
2023-05-19T15:48:07.503Z,101579.03
2023-05-19T15:50:34.189Z,101585.28
2023-05-19T15:53:00.907Z,101576.50
2023-05-19T15:55:27.501Z,101577.31
2023-05-19T15:57:54.114Z,101582.63
2023-05-19T16:00:20.773Z,101571.53
2023-05-19T16:02:47.371Z,101584.09
2023-05-19T16:05:13.973Z,101585.88
2023-05-19T16:07:41.920Z,101583.72
2023-05-19T16:10:08.893Z,101579.38
2023-05-19T16:12:36.417Z,101575.66
2023-05-19T16:15:04.024Z,101571.91
2023-05-19T16:17:30.663Z,101566.16
2023-05-19T16:19:57.105Z,101573.28
2023-05-19T16:22:25.422Z,101567.09
2023-05-19T16:24:52.519Z,101562.75
2023-05-19T16:27:19.160Z,101563.09
2023-05-19T16:29:45.905Z,101554.31
2023-05-19T16:32:13.031Z,101553.28
2023-05-19T16:34:39.739Z,101551.31
2023-05-19T16:37:06.260Z,101557.25
2023-05-19T16:39:32.941Z,101552.69
2023-05-19T16:41:59.362Z,101547.56
2023-05-19T16:44:26.327Z,101545.66
2023-05-19T16:46:52.773Z,101550.13
2023-05-19T16:49:19.157Z,101539.59
2023-05-19T16:51:46.826Z,101551.78
2023-05-19T16:54:14.745Z,101551.00
2023-05-19T16:56:41.201Z,101549.06
2023-05-19T16:59:09.380Z,101548.53
2023-05-19T17:01:36.136Z,101555.31
2023-05-19T17:04:02.604Z,101554.88
2023-05-19T17:06:29.057Z,101552.03
2023-05-19T17:08:55.529Z,101546.16
2023-05-19T17:11:22.006Z,101545.03
2023-05-19T17:13:48.724Z,101545.03
2023-05-19T17:16:15.856Z,101542.50
2023-05-19T17:18:43.830Z,101545.69
2023-05-19T17:21:10.586Z,101547.19
2023-05-19T17:23:37.884Z,101549.19
2023-05-19T17:26:04.500Z,101550.84
2023-05-19T17:28:31.053Z,101548.81
2023-05-19T17:30:57.405Z,101554.09
2023-05-19T17:33:23.933Z,101555.22
2023-05-19T17:35:50.574Z,101546.50
2023-05-19T17:38:17.025Z,101563.66
2023-05-19T17:40:43.492Z,101564.78
2023-05-19T17:43:09.885Z,101563.25
2023-05-19T17:45:36.320Z,101564.84
2023-05-19T17:48:03.219Z,101569.06
2023-05-19T17:50:29.660Z,101565.41
2023-05-19T17:52:56.375Z,101562.50
2023-05-19T17:55:27.998Z,101574.69
2023-05-19T17:57:54.618Z,101569.09
2023-05-19T18:00:21.490Z,101574.22
2023-05-19T18:02:48.518Z,101576.47
2023-05-19T18:05:15.660Z,101577.34
2023-05-19T18:07:42.403Z,101577.06
2023-05-19T18:10:09.697Z,101578.19
2023-05-19T18:12:36.237Z,101577.44
2023-05-19T18:15:03.272Z,101580.47
2023-05-19T18:17:29.858Z,101583.25
2023-05-19T18:19:56.316Z,101592.13
2023-05-19T18:22:22.768Z,101588.00
2023-05-19T18:24:49.279Z,101596.66
2023-05-19T18:27:15.781Z,101594.41
2023-05-19T18:29:42.336Z,101593.31
2023-05-19T18:32:09.268Z,101595.03
2023-05-19T18:34:35.813Z,101595.03
2023-05-19T18:37:02.210Z,101593.94
2023-05-19T18:39:29.424Z,101587.94
2023-05-19T18:41:56.116Z,101591.84
2023-05-19T18:44:22.669Z,101586.09
2023-05-19T18:46:49.141Z,101588.81
2023-05-19T18:49:15.780Z,101596.34
2023-05-19T18:51:42.493Z,101604.59
2023-05-19T18:54:09.158Z,101601.94
2023-05-19T18:56:35.846Z,101614.59
2023-05-19T18:59:02.344Z,101616.56
2023-05-19T19:01:28.915Z,101614.66
2023-05-19T19:03:55.480Z,101618.59
2023-05-19T19:06:23.133Z,101620.25
2023-05-19T19:08:50.076Z,101616.38
2023-05-19T19:11:16.536Z,101621.41
2023-05-19T19:13:43.579Z,101625.84
2023-05-19T19:16:10.150Z,101626.13
2023-05-19T19:18:36.869Z,101633.56
2023-05-19T19:21:05.649Z,101634.69
2023-05-19T19:23:32.543Z,101636.31
2023-05-19T19:25:59.009Z,101643.50
2023-05-19T19:28:25.570Z,101643.50
2023-05-19T19:30:52.064Z,101638.53
2023-05-19T19:33:18.679Z,101647.38
2023-05-19T19:35:46.886Z,101644.66
2023-05-19T19:38:13.751Z,101649.06
2023-05-19T19:40:40.471Z,101655.09
2023-05-19T19:43:06.917Z,101656.75
2023-05-19T19:45:34.757Z,101665.28
2023-05-19T19:48:01.761Z,101661.44
2023-05-19T19:50:28.338Z,101668.88
2023-05-19T19:52:54.913Z,101672.72
2023-05-19T19:55:21.698Z,101670.53
2023-05-19T19:57:49.400Z,101679.06
2023-05-19T20:00:16.551Z,101676.84
2023-05-19T20:02:59.518Z,101683.75
2023-05-19T20:05:29.532Z,101673.28
2023-05-19T20:07:55.925Z,101680.69
2023-05-19T20:10:22.427Z,101668.88
2023-05-19T20:12:50.416Z,101679.88
2023-05-19T20:15:17.003Z,101681.22
2023-05-19T20:17:43.437Z,101672.19
2023-05-19T20:20:11.672Z,101673.81
2023-05-19T20:22:39.198Z,101677.94
2023-05-19T20:25:06.427Z,101680.97
2023-05-19T20:27:32.947Z,101689.22
2023-05-19T20:29:59.557Z,101685.34
2023-05-19T20:32:25.988Z,101688.66
2023-05-19T20:34:52.651Z,101701.28
2023-05-19T20:37:19.144Z,101696.06
2023-05-19T20:39:45.531Z,101702.09
2023-05-19T20:42:12.213Z,101703.97
2023-05-19T20:44:38.804Z,101702.56
2023-05-19T20:47:08.038Z,101691.31
2023-05-19T20:49:35.036Z,101696.75
2023-05-19T20:52:01.619Z,101691.25
2023-05-19T20:54:28.075Z,101697.56
2023-05-19T20:56:54.627Z,101705.53
2023-05-19T20:59:21.177Z,101707.47
2023-05-19T21:01:47.954Z,101705.53
2023-05-19T21:04:14.437Z,101702.72
2023-05-19T21:06:41.035Z,101707.09
2023-05-19T21:09:07.556Z,101706.25
2023-05-19T21:11:34.332Z,101710.34
2023-05-19T21:14:04.276Z,101713.88
2023-05-19T21:16:31.526Z,101721.03
2023-05-19T21:18:58.078Z,101717.16
2023-05-19T21:21:24.874Z,101722.88
2023-05-19T21:23:51.387Z,101728.41
2023-05-19T21:26:18.126Z,101725.06
2023-05-19T21:28:44.526Z,101726.66
2023-05-19T21:31:11.089Z,101724.22
2023-05-19T21:33:37.867Z,101725.03
2023-05-19T21:36:04.527Z,101722.72
2023-05-19T21:38:30.921Z,101716.25
2023-05-19T21:40:57.387Z,101727.28
2023-05-19T21:43:23.829Z,101718.09
2023-05-19T21:45:50.281Z,101723.22
2023-05-19T21:48:16.827Z,101720.53
2023-05-19T21:50:43.400Z,101721.84
2023-05-19T21:53:09.779Z,101723.22
2023-05-19T21:55:36.303Z,101718.75
2023-05-19T21:58:02.977Z,101719.28
2023-05-19T22:00:29.455Z,101723.16
2023-05-19T22:02:56.006Z,101723.16
2023-05-19T22:05:22.464Z,101720.13
2023-05-19T22:07:48.920Z,101720.66
2023-05-19T22:10:15.424Z,101722.09
2023-05-19T22:12:41.875Z,101717.16
2023-05-19T22:15:08.956Z,101714.31
2023-05-19T22:17:35.550Z,101717.88
2023-05-19T22:20:02.013Z,101718.69
2023-05-19T22:22:28.443Z,101721.72
2023-05-19T22:24:55.981Z,101720.91
2023-05-19T22:27:22.367Z,101724.66
2023-05-19T22:29:48.860Z,101716.91
2023-05-19T22:32:17.959Z,101723.03
2023-05-19T22:34:44.841Z,101707.91
2023-05-19T22:37:12.189Z,101714.75
2023-05-19T22:39:39.283Z,101713.34
2023-05-19T22:42:06.076Z,101718.59
2023-05-19T22:44:32.514Z,101718.59
2023-05-19T22:46:59.007Z,101721.28
2023-05-19T22:49:27.285Z,101720.25
2023-05-19T22:51:53.706Z,101715.09
2023-05-19T22:54:20.190Z,101712.75
2023-05-19T22:56:48.783Z,101710.34
2023-05-19T22:59:17.597Z,101705.66
2023-05-19T23:01:46.526Z,101713.53
2023-05-19T23:04:13.890Z,101703.00
2023-05-19T23:06:40.428Z,101701.38
2023-05-19T23:09:06.893Z,101698.06
2023-05-19T23:11:34.143Z,101705.09
2023-05-19T23:14:00.752Z,101705.06
2023-05-19T23:16:27.266Z,101711.63
2023-05-19T23:18:53.684Z,101713.31
2023-05-19T23:21:20.096Z,101702.59
2023-05-19T23:23:46.557Z,101707.03
2023-05-19T23:26:15.776Z,101707.84
2023-05-19T23:28:42.847Z,101714.38
2023-05-19T23:31:09.752Z,101709.41
2023-05-19T23:33:36.276Z,101694.06
2023-05-19T23:36:08.524Z,101698.47
2023-05-19T23:38:35.897Z,101695.66
2023-05-19T23:41:02.463Z,101696.13
2023-05-19T23:43:29.053Z,101685.75
2023-05-19T23:45:55.639Z,101693.47
2023-05-19T23:48:22.072Z,101689.63
2023-05-19T23:50:48.482Z,101695.88
2023-05-19T23:53:15.059Z,101688.03
2023-05-19T23:55:42.118Z,101695.94
2023-05-19T23:58:08.639Z,101693.75
